Time;durP1;ratioP1;P1;durP2;ratioP2;P2;SDS_P1;SDS_P2;PMS_P1;PMS_P2;Temp;Humidity;BMP_temperature;BMP_pressure;BME280_temperature;BME280_humidity;BME280_pressure;Samples;Min_cycle;Max_cycle;Signal;HPM_P1;HPM_P2
2022/05/04 00:00:11;;;;;;;20.75;14.63;;;13.10;99.90;;;;;;5103741;28;20138;-65
2022/05/04 00:02:40;;;;;;;20.73;14.30;;;13.10;99.90;;;;;;5087230;28;20043;-65
2022/05/04 00:05:09;;;;;;;19.27;13.32;;;13.20;99.90;;;;;;5094122;28;20062;-65
2022/05/04 00:07:37;;;;;;;17.30;14.02;;;13.20;99.90;;;;;;5095580;28;20048;-65
2022/05/04 00:10:06;;;;;;;15.45;13.43;;;13.20;99.90;;;;;;5090543;28;20142;-64
2022/05/04 00:12:34;;;;;;;18.40;14.60;;;13.10;99.90;;;;;;5106879;28;20046;-64
2022/05/04 00:15:02;;;;;;;21.42;15.07;;;13.10;99.90;;;;;;5103506;28;20123;-64
2022/05/04 00:17:30;;;;;;;19.63;14.77;;;13.10;99.90;;;;;;5100948;28;20521;-64
2022/05/04 00:19:58;;;;;;;18.80;14.75;;;13.00;99.90;;;;;;5095090;28;20126;-65
2022/05/04 00:22:26;;;;;;;19.08;14.80;;;12.90;99.90;;;;;;5098590;28;20047;-65
2022/05/04 00:24:53;;;;;;;18.02;13.63;;;12.90;99.90;;;;;;5099139;28;20043;-65
2022/05/04 00:27:23;;;;;;;18.33;14.45;;;12.80;99.90;;;;;;5100659;28;20481;-64
2022/05/04 00:29:51;;;;;;;23.60;16.55;;;12.80;99.90;;;;;;5114388;28;20097;-64
2022/05/04 00:32:19;;;;;;;17.90;14.27;;;12.70;99.90;;;;;;5103732;28;20146;-64
2022/05/04 00:34:47;;;;;;;22.35;15.57;;;12.60;99.90;;;;;;5094608;28;20127;-66
2022/05/04 00:37:14;;;;;;;21.23;15.93;;;12.60;99.90;;;;;;5108001;28;20040;-64
2022/05/04 00:39:43;;;;;;;21.17;16.08;;;12.50;99.90;;;;;;5103736;28;20036;-64
2022/05/04 00:42:13;;;;;;;20.27;15.80;;;12.40;99.90;;;;;;5100156;28;20401;-64
2022/05/04 00:44:42;;;;;;;21.58;17.08;;;12.40;99.90;;;;;;5094940;28;20373;-64
2022/05/04 00:47:10;;;;;;;21.00;16.08;;;12.30;99.90;;;;;;5089571;28;20491;-64
2022/05/04 00:49:40;;;;;;;24.52;18.65;;;12.30;99.90;;;;;;5093346;28;20389;-64
2022/05/04 00:52:09;;;;;;;21.98;18.05;;;12.20;99.90;;;;;;5097501;28;20040;-64
2022/05/04 00:54:37;;;;;;;20.35;16.45;;;12.10;99.90;;;;;;5095609;28;20082;-64
2022/05/04 00:57:05;;;;;;;19.92;17.17;;;12.00;99.90;;;;;;5100261;28;20044;-64
2022/05/04 00:59:33;;;;;;;23.30;17.42;;;11.90;99.90;;;;;;5107890;28;20410;-64
2022/05/04 01:02:00;;;;;;;20.58;16.35;;;11.70;99.90;;;;;;5094837;28;20032;-64
2022/05/04 01:04:28;;;;;;;20.48;16.92;;;11.60;99.90;;;;;;5091252;28;20530;-64
2022/05/04 01:06:55;;;;;;;21.05;17.08;;;11.50;99.90;;;;;;5104873;28;20947;-63
2022/05/04 01:09:21;;;;;;;19.85;16.27;;;11.50;99.90;;;;;;5111046;28;20031;-66
2022/05/04 01:11:49;;;;;;;19.73;15.88;;;11.40;99.90;;;;;;5095819;27;20056;-64
2022/05/04 01:14:17;;;;;;;19.77;17.55;;;11.30;99.90;;;;;;5096866;28;20489;-64
2022/05/04 01:16:48;;;;;;;18.38;15.88;;;11.20;99.90;;;;;;5111193;28;20520;-64
2022/05/04 01:19:16;;;;;;;19.15;16.45;;;11.20;99.90;;;;;;5111058;28;20410;-65
2022/05/04 01:21:44;;;;;;;22.88;18.73;;;11.10;99.90;;;;;;5111080;28;20051;-65
2022/05/04 01:24:11;;;;;;;24.90;19.52;;;11.10;99.90;;;;;;5094746;28;20031;-65
2022/05/04 01:26:38;;;;;;;24.35;18.38;;;11.00;99.90;;;;;;5111211;27;20059;-65
2022/05/04 01:29:06;;;;;;;21.70;17.55;;;11.00;99.90;;;;;;5098360;28;20442;-64
2022/05/04 01:31:33;;;;;;;25.52;18.45;;;10.90;99.90;;;;;;5091478;28;20032;-65
2022/05/04 01:34:00;;;;;;;26.63;19.92;;;10.90;99.90;;;;;;5092929;28;20134;-65
2022/05/04 01:36:28;;;;;;;25.73;20.83;;;10.90;99.90;;;;;;5109106;28;20654;-65
2022/05/04 01:38:55;;;;;;;26.98;21.35;;;10.90;99.90;;;;;;5096908;28;20046;-65
2022/05/04 01:44:09;;;;;;;25.52;19.40;;;10.80;99.90;;;;;;5092527;28;20044;-65
2022/05/04 01:46:36;;;;;;;24.73;20.15;;;10.80;99.90;;;;;;5103535;28;20052;-65
2022/05/04 01:49:04;;;;;;;27.95;20.42;;;10.80;99.90;;;;;;5090594;28;20411;-65
2022/05/04 01:51:31;;;;;;;23.92;18.92;;;10.80;99.90;;;;;;5090755;28;20105;-66
2022/05/04 01:53:58;;;;;;;20.13;17.08;;;10.80;99.90;;;;;;5104414;28;20785;-65
2022/05/04 01:56:26;;;;;;;20.15;16.73;;;10.90;99.90;;;;;;5092975;28;20525;-65
2022/05/04 01:58:54;;;;;;;21.02;17.33;;;10.80;99.90;;;;;;5098490;27;20155;-65
2022/05/04 02:01:21;;;;;;;20.02;17.13;;;10.80;99.90;;;;;;5103027;28;20044;-65
2022/05/04 02:03:48;;;;;;;21.00;17.08;;;10.80;99.90;;;;;;5090334;28;20127;-65
2022/05/04 02:06:16;;;;;;;20.38;16.85;;;10.80;99.90;;;;;;5089714;28;20459;-65
2022/05/04 02:08:44;;;;;;;20.58;16.70;;;10.80;99.90;;;;;;5101125;28;20044;-65
2022/05/04 02:11:12;;;;;;;20.88;16.80;;;10.80;99.90;;;;;;5108333;28;20492;-65
2022/05/04 02:13:39;;;;;;;19.23;16.48;;;10.80;99.90;;;;;;5109317;28;20054;-65
2022/05/04 02:16:06;;;;;;;22.63;17.70;;;10.70;99.90;;;;;;5104161;28;20134;-65
2022/05/04 02:18:34;;;;;;;22.55;16.45;;;10.70;99.90;;;;;;5090931;28;20032;-65
2022/05/04 02:21:02;;;;;;;21.20;16.65;;;10.70;99.90;;;;;;5096673;28;20046;-65
2022/05/04 02:23:29;;;;;;;22.42;17.35;;;10.70;99.90;;;;;;5100344;28;20054;-65
2022/05/04 02:25:56;;;;;;;20.33;16.48;;;10.70;99.90;;;;;;5108632;28;20135;-65
2022/05/04 02:28:23;;;;;;;19.00;16.92;;;10.70;99.90;;;;;;5109127;28;20406;-65
2022/05/04 02:30:51;;;;;;;19.48;17.00;;;10.70;99.90;;;;;;5106971;28;20050;-65
2022/05/04 02:33:18;;;;;;;21.65;18.20;;;10.70;99.90;;;;;;5107158;28;20054;-65
2022/05/04 02:38:35;;;;;;;24.35;18.50;;;10.60;99.90;;;;;;5108211;28;20043;-64
2022/05/04 02:41:03;;;;;;;23.50;18.77;;;10.60;99.90;;;;;;5107870;28;20036;-64
2022/05/04 02:43:30;;;;;;;25.80;21.77;;;10.60;99.90;;;;;;5107595;28;20039;-64
2022/05/04 02:45:58;;;;;;;30.83;25.30;;;10.60;99.90;;;;;;5108960;28;20066;-64
2022/05/04 02:48:25;;;;;;;31.25;23.98;;;10.50;99.90;;;;;;5108209;28;20066;-64
2022/05/04 02:50:52;;;;;;;30.52;23.02;;;10.50;99.90;;;;;;5108930;28;20059;-65
2022/05/04 02:53:20;;;;;;;28.55;22.35;;;10.50;99.90;;;;;;5109350;28;20050;-64
2022/05/04 02:55:47;;;;;;;25.77;20.50;;;10.40;99.90;;;;;;5103914;28;20047;-64
2022/05/04 02:58:14;;;;;;;24.98;19.80;;;10.40;99.90;;;;;;5101435;27;20418;-65
2022/05/04 03:00:41;;;;;;;26.23;21.38;;;10.40;99.90;;;;;;5100771;28;20504;-65
2022/05/04 03:03:10;;;;;;;30.98;21.85;;;10.40;99.90;;;;;;5087077;28;20048;-64
2022/05/04 03:05:39;;;;;;;27.33;20.73;;;10.40;99.90;;;;;;5089000;28;20123;-64
2022/05/04 03:08:06;;;;;;;28.15;22.13;;;10.40;99.90;;;;;;5101559;28;20048;-64
2022/05/04 03:11:54;;;;;;;25.42;20.75;;;10.50;99.90;;;;;;5088454;28;20141;-63
2022/05/04 03:13:22;;;;;;;25.25;19.25;;;10.40;99.90;;;;;;5108774;28;20048;-63
2022/05/04 03:15:49;;;;;;;25.23;19.95;;;10.40;99.90;;;;;;5107726;28;20055;-64
2022/05/04 03:18:16;;;;;;;23.63;18.83;;;10.40;99.90;;;;;;5108430;28;20042;-64
2022/05/04 03:20:44;;;;;;;25.02;19.25;;;10.40;99.90;;;;;;5108895;28;20048;-64
2022/05/04 03:23:11;;;;;;;22.63;18.90;;;10.40;99.90;;;;;;5108675;28;20500;-63
2022/05/04 03:25:38;;;;;;;25.83;19.73;;;10.40;99.90;;;;;;5098615;28;20483;-65
2022/05/04 03:28:07;;;;;;;27.88;22.10;;;10.40;99.90;;;;;;5093177;28;20067;-64
2022/05/04 03:30:35;;;;;;;29.80;20.25;;;10.40;99.90;;;;;;5107349;28;20040;-64
2022/05/04 03:33:02;;;;;;;25.13;18.25;;;10.40;99.90;;;;;;5106935;28;20492;-65
2022/05/04 03:35:29;;;;;;;23.00;18.13;;;10.40;99.90;;;;;;5108681;28;20054;-64
2022/05/04 03:37:57;;;;;;;23.67;18.27;;;10.40;99.90;;;;;;5107370;28;20055;-64
2022/05/04 03:40:24;;;;;;;26.05;19.30;;;10.40;99.90;;;;;;5108219;28;20357;-64
2022/05/04 03:42:52;;;;;;;30.42;19.65;;;10.40;99.90;;;;;;5107123;28;20054;-63
2022/05/04 03:45:20;;;;;;;28.15;19.83;;;10.40;99.90;;;;;;5099147;28;20510;-63
2022/05/04 03:47:48;;;;;;;26.55;18.40;;;10.40;99.90;;;;;;5107362;28;20036;-64
2022/05/04 03:50:15;;;;;;;24.58;17.83;;;10.40;99.90;;;;;;5107836;28;20387;-64
2022/05/04 03:52:42;;;;;;;21.88;17.27;;;10.30;99.90;;;;;;5105981;28;20433;-64
2022/05/04 03:55:09;;;;;;;21.42;17.13;;;10.30;99.90;;;;;;5099531;28;20040;-64
2022/05/04 03:57:37;;;;;;;23.95;17.02;;;10.30;99.90;;;;;;5105121;28;20563;-64
2022/05/04 04:00:05;;;;;;;22.83;16.67;;;10.30;99.90;;;;;;5104911;28;20042;-65
2022/05/04 04:02:32;;;;;;;22.23;16.05;;;10.30;99.90;;;;;;5100040;28;20425;-64
2022/05/04 04:05:00;;;;;;;27.27;18.95;;;10.30;99.90;;;;;;5087188;28;20079;-64
2022/05/04 04:07:28;;;;;;;24.17;18.45;;;10.30;99.90;;;;;;5089422;28;20040;-64
2022/05/04 04:09:55;;;;;;;23.23;18.38;;;10.30;99.90;;;;;;5099800;28;20036;-65
2022/05/04 04:12:22;;;;;;;25.05;17.73;;;10.30;99.90;;;;;;5106926;28;20439;-65
2022/05/04 04:14:49;;;;;;;22.05;16.23;;;10.40;99.90;;;;;;5100803;28;20043;-65
2022/05/04 04:17:17;;;;;;;22.60;16.38;;;10.40;99.90;;;;;;5095297;28;20036;-64
2022/05/04 04:19:44;;;;;;;21.75;17.45;;;10.40;99.90;;;;;;5106259;28;20035;-64
2022/05/04 04:22:12;;;;;;;24.42;17.00;;;10.40;99.90;;;;;;5106561;28;20555;-64
2022/05/04 04:24:39;;;;;;;19.15;16.42;;;10.50;99.90;;;;;;5106935;28;20047;-65
2022/05/04 04:27:06;;;;;;;22.98;16.60;;;10.50;99.90;;;;;;5102846;28;20100;-64
2022/05/04 04:29:34;;;;;;;20.48;16.98;;;10.50;99.90;;;;;;5105685;28;20372;-65
2022/05/04 04:32:01;;;;;;;26.70;20.00;;;10.50;99.90;;;;;;5107588;28;20055;-65
2022/05/04 04:34:29;;;;;;;21.98;17.15;;;10.50;99.90;;;;;;5089802;28;20047;-65
2022/05/04 04:36:56;;;;;;;24.70;18.13;;;10.60;99.90;;;;;;5102206;28;20442;-64
2022/05/04 04:39:24;;;;;;;21.27;17.17;;;10.60;99.90;;;;;;5100552;28;20066;-65
2022/05/04 04:41:51;;;;;;;22.25;17.15;;;10.70;99.90;;;;;;5106871;28;20558;-67
2022/05/04 04:44:19;;;;;;;19.25;16.33;;;10.70;99.90;;;;;;5102734;28;20048;-64
2022/05/04 04:46:46;;;;;;;20.95;16.40;;;10.80;99.90;;;;;;5104424;28;20058;-64
2022/05/04 04:49:14;;;;;;;20.13;15.70;;;10.80;99.90;;;;;;5109712;28;20149;-66
2022/05/04 04:51:41;;;;;;;22.20;16.33;;;10.80;99.90;;;;;;5110609;28;20043;-63
2022/05/04 04:54:08;;;;;;;19.30;14.85;;;10.80;99.90;;;;;;5110731;28;20043;-64
2022/05/04 04:56:35;;;;;;;19.17;15.82;;;10.80;99.90;;;;;;5098207;28;20135;-65
2022/05/04 04:59:03;;;;;;;22.10;16.23;;;10.90;99.90;;;;;;5098363;27;20060;-65
2022/05/04 05:01:30;;;;;;;17.77;15.13;;;11.00;99.90;;;;;;5092590;28;20046;-65
2022/05/04 05:03:57;;;;;;;25.67;17.25;;;11.10;99.90;;;;;;5100470;28;20078;-64
2022/05/04 05:06:25;;;;;;;32.45;22.95;;;11.10;99.90;;;;;;5103284;28;20069;-65
2022/05/04 05:08:53;;;;;;;20.95;17.23;;;11.20;99.90;;;;;;5108045;28;20042;-64
2022/05/04 05:11:21;;;;;;;17.50;14.43;;;11.20;99.90;;;;;;5111368;28;20067;-65
2022/05/04 05:16:35;;;;;;;27.52;19.75;;;11.30;99.90;;;;;;5099645;28;20143;-65
2022/05/04 05:19:02;;;;;;;21.92;17.40;;;11.40;99.90;;;;;;5102891;28;20093;-65
2022/05/04 05:21:30;;;;;;;20.27;15.40;;;11.50;99.90;;;;;;5110986;28;20048;-65
2022/05/04 05:23:57;;;;;;;19.65;16.40;;;11.50;99.90;;;;;;5107759;28;20393;-65
2022/05/04 05:26:24;;;;;;;19.17;14.80;;;11.60;99.90;;;;;;5094612;28;20040;-65
2022/05/04 05:28:52;;;;;;;18.65;14.35;;;11.70;99.90;;;;;;5105645;28;20313;-65
2022/05/04 05:31:20;;;;;;;18.23;14.07;;;11.70;99.90;;;;;;5100086;28;20051;-65
2022/05/04 05:33:47;;;;;;;21.50;15.10;;;11.80;99.90;;;;;;5103500;28;20048;-64
2022/05/04 05:36:14;;;;;;;19.58;14.70;;;11.90;99.90;;;;;;5104494;28;20047;-64
2022/05/04 05:38:41;;;;;;;18.10;14.88;;;11.90;99.90;;;;;;5099627;28;20449;-65
2022/05/04 05:41:09;;;;;;;20.83;15.13;;;12.00;99.90;;;;;;5090681;28;20550;-65
2022/05/04 05:43:36;;;;;;;18.55;14.80;;;12.00;99.90;;;;;;5090545;28;20123;-64
2022/05/04 05:46:04;;;;;;;21.90;14.30;;;12.10;99.90;;;;;;5097126;28;20523;-64
2022/05/04 05:48:31;;;;;;;18.58;15.13;;;12.10;99.90;;;;;;5098469;28;20324;-64
2022/05/04 05:51:06;;;;;;;27.65;16.80;;;12.20;99.90;;;;;;5110039;28;20054;-64
2022/05/04 05:53:34;;;;;;;17.63;13.57;;;12.30;99.90;;;;;;5108165;28;20044;-64
2022/05/04 05:56:01;;;;;;;20.52;15.80;;;12.30;99.90;;;;;;5095440;28;20509;-64
2022/05/04 05:58:28;;;;;;;21.13;16.90;;;12.30;99.90;;;;;;5090491;28;20052;-65
2022/05/04 06:00:55;;;;;;;20.75;15.35;;;12.40;99.90;;;;;;5090842;28;20036;-64
2022/05/04 06:03:23;;;;;;;21.08;15.32;;;12.40;99.90;;;;;;5103040;28;20405;-64
2022/05/04 06:05:50;;;;;;;18.85;14.95;;;12.60;99.90;;;;;;5105891;28;20502;-65
2022/05/04 06:08:17;;;;;;;18.60;14.40;;;12.60;99.90;;;;;;5102993;27;20039;-65
2022/05/04 06:10:45;;;;;;;18.58;14.75;;;12.70;99.90;;;;;;5102548;28;20044;-65
2022/05/04 06:13:13;;;;;;;20.98;15.27;;;12.70;99.90;;;;;;5098311;28;20510;-65
2022/05/04 06:15:44;;;;;;;19.77;14.95;;;12.80;99.90;;;;;;5101637;28;20058;-64
2022/05/04 06:18:12;;;;;;;21.20;15.75;;;12.90;99.90;;;;;;5092693;28;20105;-65
2022/05/04 06:20:40;;;;;;;21.38;14.95;;;13.00;99.90;;;;;;5096726;28;20584;-65
2022/05/04 06:23:08;;;;;;;20.75;14.43;;;13.00;99.90;;;;;;5099068;28;20044;-65
2022/05/04 06:25:36;;;;;;;17.95;14.30;;;13.10;99.90;;;;;;5095222;28;20419;-65
2022/05/04 06:28:04;;;;;;;20.55;15.10;;;13.20;99.90;;;;;;5096064;28;20074;-65
2022/05/04 06:36:05;;;;;;;18.40;14.32;;;13.50;99.90;;;;;;5100874;28;20086;-65
2022/05/04 06:38:33;;;;;;;18.83;13.57;;;13.60;99.90;;;;;;5101146;28;20036;-65
2022/05/04 06:41:00;;;;;;;17.58;13.68;;;13.70;99.90;;;;;;5083692;28;20070;-66
2022/05/04 06:43:28;;;;;;;18.00;13.45;;;13.90;99.90;;;;;;5104636;28;20070;-66
2022/05/04 06:45:55;;;;;;;15.95;12.27;;;13.90;99.90;;;;;;5105347;28;20475;-66
2022/05/04 06:48:23;;;;;;;18.35;13.02;;;14.00;99.90;;;;;;5104148;28;20039;-67
2022/05/04 06:50:50;;;;;;;15.55;13.20;;;14.10;99.90;;;;;;5098675;28;20507;-65
2022/05/04 06:53:18;;;;;;;15.18;12.55;;;14.20;99.90;;;;;;5098590;28;20578;-66
2022/05/04 06:55:45;;;;;;;15.75;13.50;;;14.30;99.90;;;;;;5096220;28;20048;-65
2022/05/04 06:58:13;;;;;;;14.88;12.95;;;14.40;99.90;;;;;;5109345;27;20086;-66
2022/05/04 07:00:40;;;;;;;16.05;12.45;;;14.50;99.90;;;;;;5095730;28;20053;-66
2022/05/04 07:03:08;;;;;;;14.48;12.38;;;14.50;99.90;;;;;;5108835;27;20549;-65
2022/05/04 07:05:35;;;;;;;14.63;11.98;;;14.70;99.90;;;;;;5094573;28;20147;-66
2022/05/04 07:08:03;;;;;;;13.80;11.30;;;14.70;99.90;;;;;;5100763;28;20479;-65
2022/05/04 07:10:30;;;;;;;15.13;11.00;;;14.80;99.90;;;;;;5105714;28;20040;-65
2022/05/04 07:12:58;;;;;;;15.32;10.90;;;14.90;99.90;;;;;;5104054;27;20909;-65
2022/05/04 07:15:25;;;;;;;14.52;11.88;;;15.00;99.90;;;;;;5105612;28;20055;-65
2022/05/04 07:17:52;;;;;;;17.85;12.50;;;15.10;99.90;;;;;;5101546;28;20047;-65
2022/05/04 07:20:20;;;;;;;14.95;11.32;;;15.20;99.90;;;;;;5103453;28;20040;-65
2022/05/04 07:22:47;;;;;;;16.00;12.45;;;15.30;99.90;;;;;;5095679;28;20048;-64
2022/05/04 07:25:15;;;;;;;13.95;11.52;;;15.30;99.90;;;;;;5107959;28;20063;-65
2022/05/04 07:27:42;;;;;;;13.95;11.77;;;15.40;99.90;;;;;;5107788;28;20054;-65
2022/05/04 07:30:10;;;;;;;18.20;12.05;;;15.50;99.90;;;;;;5103506;27;20471;-64
2022/05/04 07:32:38;;;;;;;15.43;11.85;;;15.60;99.90;;;;;;5093887;28;20134;-65
2022/05/04 07:35:08;;;;;;;15.27;11.77;;;15.70;99.90;;;;;;5088508;28;20079;-65
2022/05/04 07:37:35;;;;;;;14.63;10.93;;;15.70;99.90;;;;;;5099246;28;20518;-65
2022/05/04 07:42:53;;;;;;;17.02;12.02;;;16.00;99.90;;;;;;5089781;28;20036;-64
2022/05/04 07:45:20;;;;;;;15.55;11.85;;;16.00;99.90;;;;;;5104039;28;20063;-65
2022/05/04 07:47:47;;;;;;;17.95;13.25;;;16.10;99.90;;;;;;5106490;28;20054;-66
2022/05/04 07:50:17;;;;;;;14.85;12.00;;;16.20;99.90;;;;;;5108856;28;20112;-67
2022/05/04 07:52:47;;;;;;;14.25;11.25;;;16.40;99.90;;;;;;5107861;28;20051;-66
2022/05/04 07:55:15;;;;;;;14.68;10.70;;;16.50;99.90;;;;;;5106655;28;20070;-66
2022/05/04 07:57:47;;;;;;;14.93;10.80;;;16.50;99.90;;;;;;5101173;27;20122;-65
2022/05/04 08:05:47;;;;;;;17.17;12.05;;;16.80;99.90;;;;;;5092246;28;20040;-65
2022/05/04 08:08:14;;;;;;;18.08;12.73;;;16.90;99.90;;;;;;5091888;28;20067;-66
2022/05/04 08:10:42;;;;;;;16.70;12.50;;;17.00;99.90;;;;;;5108607;28;20519;-65
2022/05/04 08:13:09;;;;;;;16.45;12.88;;;17.00;99.90;;;;;;5112293;28;20131;-65
2022/05/04 08:15:37;;;;;;;15.50;12.18;;;16.90;99.90;;;;;;5107022;28;20043;-65
2022/05/04 08:18:05;;;;;;;17.13;12.27;;;16.90;99.90;;;;;;5112691;28;20044;-65
2022/05/04 08:20:32;;;;;;;14.23;11.95;;;17.00;99.90;;;;;;5101035;28;20510;-65
2022/05/04 08:22:59;;;;;;;13.90;11.88;;;17.20;99.90;;;;;;5109327;28;20071;-65
2022/05/04 08:25:27;;;;;;;15.82;12.40;;;17.20;99.90;;;;;;5110130;28;20036;-65
2022/05/04 08:27:54;;;;;;;15.40;11.52;;;17.20;99.90;;;;;;5111442;28;20382;-64
2022/05/04 08:30:23;;;;;;;13.57;11.38;;;17.30;99.90;;;;;;5101651;28;20495;-65
2022/05/04 08:32:51;;;;;;;15.55;13.07;;;17.40;99.90;;;;;;5109964;28;20082;-65
2022/05/04 08:35:19;;;;;;;15.00;12.43;;;17.60;99.90;;;;;;5109063;27;20047;-64
2022/05/04 08:37:48;;;;;;;16.10;12.15;;;17.60;99.90;;;;;;5100363;28;20699;-64
2022/05/04 08:40:15;;;;;;;13.63;10.23;;;17.50;99.90;;;;;;5104886;28;20154;-65
2022/05/04 08:42:45;;;;;;;15.10;11.45;;;17.60;99.90;;;;;;5096666;28;20478;-65
2022/05/04 08:45:14;;;;;;;14.77;11.50;;;17.80;99.90;;;;;;5112403;28;20067;-65
2022/05/04 08:47:44;;;;;;;15.82;12.48;;;18.10;99.90;;;;;;5108678;27;20075;-63
2022/05/04 08:50:17;;;;;;;14.38;10.57;;;18.30;99.90;;;;;;5095444;28;20064;-64
2022/05/04 08:52:55;;;;;;;19.33;11.05;;;18.40;99.90;;;;;;5105571;28;20074;-64
2022/05/04 08:55:24;;;;;;;12.70;9.98;;;18.50;99.90;;;;;;5098167;27;20062;-63
2022/05/04 08:57:54;;;;;;;14.52;10.43;;;18.70;99.90;;;;;;5099706;27;20081;-65
2022/05/04 09:00:22;;;;;;;13.48;10.50;;;18.60;99.90;;;;;;5104930;28;20048;-64
2022/05/04 09:02:49;;;;;;;13.93;10.07;;;18.60;99.90;;;;;;5108073;28;20050;-65
2022/05/04 09:05:23;;;;;;;12.15;10.05;;;18.80;99.90;;;;;;5110718;28;20122;-64
2022/05/04 09:07:58;;;;;;;14.50;9.90;;;18.90;99.90;;;;;;5111589;28;20048;-64
2022/05/04 09:10:27;;;;;;;13.75;10.20;;;19.10;99.90;;;;;;5109865;28;20592;-64
2022/05/04 09:12:55;;;;;;;14.43;10.45;;;19.20;99.90;;;;;;5109860;28;20043;-64
2022/05/04 09:15:26;;;;;;;15.18;10.13;;;19.10;99.90;;;;;;5108454;28;20078;-64
2022/05/04 09:17:59;;;;;;;16.05;9.43;;;19.20;99.90;;;;;;5108592;28;20047;-63
2022/05/04 09:23:21;;;;;;;13.88;8.57;;;19.60;99.90;;;;;;5105201;28;20084;-65
2022/05/04 09:25:55;;;;;;;10.15;9.05;;;19.80;99.90;;;;;;5111177;28;20570;-65
2022/05/04 09:28:25;;;;;;;15.70;11.23;;;20.10;99.90;;;;;;5110971;28;20574;-64
2022/05/04 09:30:54;;;;;;;13.18;8.85;;;20.20;99.90;;;;;;5108775;28;20439;-65
2022/05/04 09:33:26;;;;;;;10.98;8.45;;;20.40;99.90;;;;;;5111263;28;20075;-65
2022/05/04 09:35:55;;;;;;;9.25;7.88;;;20.70;99.90;;;;;;5110732;28;20404;-64
2022/05/04 09:46:49;;;;;;;14.18;8.05;;;21.00;99.90;;;;;;5109782;28;20459;-65
2022/05/04 09:49:28;;;;;;;9.57;7.30;;;21.10;99.90;;;;;;5105328;28;20512;-64
2022/05/04 09:51:55;;;;;;;11.02;8.32;;;21.40;99.90;;;;;;5099193;27;20214;-64
2022/05/04 09:54:27;;;;;;;10.85;7.95;;;21.70;99.90;;;;;;5106020;28;20039;-65
2022/05/04 09:56:56;;;;;;;10.32;7.88;;;21.90;99.90;;;;;;5099101;28;20048;-65
2022/05/04 09:59:31;;;;;;;9.13;6.80;;;22.20;99.90;;;;;;5100899;27;20048;-64
2022/05/04 10:02:00;;;;;;;14.15;9.95;;;22.30;99.90;;;;;;5089180;28;20047;-65
2022/05/04 10:04:28;;;;;;;13.55;7.60;;;22.40;99.90;;;;;;5089709;28;20040;-65
2022/05/04 10:07:09;;;;;;;12.02;8.25;;;22.30;99.90;;;;;;5094259;28;20047;-65
2022/05/04 10:09:37;;;;;;;12.88;8.25;;;22.20;99.90;;;;;;5110408;28;20067;-64
2022/05/04 10:12:06;;;;;;;9.43;7.50;;;22.10;99.90;;;;;;5095369;28;20121;-65
2022/05/04 10:14:33;;;;;;;11.43;8.70;;;22.20;99.90;;;;;;5089260;28;20407;-65
2022/05/04 10:17:14;;;;;;;9.55;7.35;;;22.00;99.90;;;;;;5090442;28;20774;-65
2022/05/04 10:19:54;;;;;;;13.02;8.40;;;22.10;99.90;;;;;;5101750;28;20050;-65
2022/05/04 10:22:32;;;;;;;13.63;8.73;;;22.00;99.90;;;;;;5096736;28;20036;-65
2022/05/04 10:25:04;;;;;;;10.18;7.68;;;21.50;99.90;;;;;;5099968;28;20127;-64
2022/05/04 10:27:31;;;;;;;9.45;7.35;;;21.70;99.90;;;;;;5100867;28;20117;-65
2022/05/04 10:32:55;;;;;;;10.95;7.93;;;22.40;99.90;;;;;;5102457;28;20430;-64
2022/05/04 10:35:42;;;;;;;14.23;6.97;;;22.20;99.90;;;;;;5103491;27;20066;-66
2022/05/04 10:38:26;;;;;;;9.13;6.00;;;22.20;99.90;;;;;;5101558;28;20138;-64
2022/05/04 10:41:10;;;;;;;8.25;6.47;;;22.50;99.90;;;;;;5106242;27;20044;-65
2022/05/04 10:43:50;;;;;;;9.85;6.43;;;23.00;99.90;;;;;;5101769;27;20039;-65
2022/05/04 10:46:23;;;;;;;9.65;6.65;;;23.10;99.90;;;;;;5097825;28;20143;-65
2022/05/04 10:48:52;;;;;;;9.25;6.32;;;23.40;99.90;;;;;;5107042;27;20104;-65
2022/05/04 10:51:21;;;;;;;9.60;7.97;;;23.40;99.90;;;;;;5098972;28;20657;-65
2022/05/04 10:53:57;;;;;;;9.00;6.60;;;23.40;99.90;;;;;;5105468;27;20039;-65
2022/05/04 10:56:26;;;;;;;9.30;6.40;;;22.90;99.90;;;;;;5099614;28;20044;-66
2022/05/04 10:59:00;;;;;;;10.40;6.60;;;22.60;99.90;;;;;;5099387;27;20122;-66
2022/05/04 11:01:39;;;;;;;8.93;6.45;;;22.80;99.90;;;;;;5103357;28;20138;-66
2022/05/04 11:04:15;;;;;;;8.38;6.28;;;22.60;99.90;;;;;;5104136;27;20574;-66
2022/05/04 11:06:49;;;;;;;7.75;5.55;;;22.50;99.90;;;;;;5106213;27;20498;-66
2022/05/04 11:09:24;;;;;;;8.05;5.68;;;22.60;99.90;;;;;;5097729;28;20557;-66
2022/05/04 11:11:54;;;;;;;7.70;5.80;;;22.40;99.90;;;;;;5113042;27;20538;-65
2022/05/04 11:14:22;;;;;;;9.30;5.70;;;21.90;99.90;;;;;;5105524;28;20058;-65
2022/05/04 11:16:52;;;;;;;8.15;5.97;;;21.60;99.90;;;;;;5108377;28;20093;-65
2022/05/04 11:19:23;;;;;;;10.95;6.35;;;21.50;99.90;;;;;;5107995;27;20044;-66
2022/05/04 11:21:50;;;;;;;7.35;5.18;;;21.30;99.90;;;;;;5102955;28;20072;-66
2022/05/04 11:24:18;;;;;;;10.77;6.57;;;21.20;99.90;;;;;;5110393;28;20038;-66
2022/05/04 11:26:47;;;;;;;9.90;6.22;;;20.90;99.90;;;;;;5112761;27;20070;-65
2022/05/04 11:29:27;;;;;;;9.00;5.93;;;20.80;99.90;;;;;;5097640;27;20490;-65
2022/05/04 11:31:59;;;;;;;8.95;6.43;;;20.50;99.90;;;;;;5097380;28;20123;-65
2022/05/04 11:34:26;;;;;;;12.32;6.88;;;20.30;99.90;;;;;;5108969;28;20440;-65
2022/05/04 11:36:56;;;;;;;9.43;7.15;;;19.90;99.90;;;;;;5095947;28;20036;-64
2022/05/04 11:39:28;;;;;;;13.52;8.00;;;19.40;99.90;;;;;;5107726;28;20109;-65
2022/05/04 11:42:00;;;;;;;11.38;8.07;;;19.10;99.90;;;;;;5108957;28;20040;-65
2022/05/04 11:44:29;;;;;;;10.23;8.25;;;18.80;99.90;;;;;;5108286;28;20256;-66
2022/05/04 11:46:58;;;;;;;11.18;7.47;;;18.60;99.90;;;;;;5107452;28;21276;-66
2022/05/04 11:49:28;;;;;;;10.07;7.60;;;18.30;99.90;;;;;;5105567;28;20135;-65
2022/05/04 11:51:57;;;;;;;10.00;8.55;;;18.30;99.90;;;;;;5112786;27;20051;-66
2022/05/04 11:54:26;;;;;;;20.08;8.98;;;18.40;99.90;;;;;;5092419;28;20487;-65
2022/05/04 11:56:54;;;;;;;13.80;8.73;;;18.70;99.90;;;;;;5087122;28;20578;-65
2022/05/04 11:59:27;;;;;;;10.45;8.48;;;18.90;99.90;;;;;;5103584;28;20050;-65
2022/05/04 12:01:55;;;;;;;13.30;8.63;;;19.10;99.90;;;;;;5108828;28;20468;-65
2022/05/04 12:04:24;;;;;;;11.57;8.60;;;19.40;99.90;;;;;;5107646;28;20069;-66
2022/05/04 12:06:51;;;;;;;11.18;8.48;;;19.60;99.90;;;;;;5097420;28;20266;-65
2022/05/04 12:09:19;;;;;;;11.18;8.32;;;19.90;99.90;;;;;;5098043;28;20463;-65
2022/05/04 12:11:47;;;;;;;9.82;6.50;;;20.10;99.90;;;;;;5091779;28;20036;-65
2022/05/04 12:14:18;;;;;;;11.00;7.30;;;20.60;99.90;;;;;;5096705;28;20047;-65
2022/05/04 12:16:45;;;;;;;10.15;6.95;;;20.90;99.90;;;;;;5101111;28;20043;-65
2022/05/04 12:19:13;;;;;;;10.65;6.90;;;21.60;99.90;;;;;;5107282;28;20122;-66
2022/05/04 12:21:41;;;;;;;8.57;6.43;;;22.10;99.90;;;;;;5099357;28;20062;-65
2022/05/04 12:24:09;;;;;;;8.82;7.00;;;22.40;99.90;;;;;;5102431;28;20071;-66
2022/05/04 12:26:37;;;;;;;8.70;6.90;;;22.50;99.90;;;;;;5104717;28;20048;-66
2022/05/04 12:34:36;;;;;;;6.85;6.03;;;21.50;99.90;;;;;;5098803;28;20050;-65
2022/05/04 12:37:03;;;;;;;7.55;6.20;;;21.20;99.90;;;;;;5093199;28;20054;-65
2022/05/04 12:39:31;;;;;;;9.50;6.22;;;21.20;99.90;;;;;;5096466;28;20136;-66
2022/05/04 12:41:59;;;;;;;7.53;5.68;;;20.90;99.90;;;;;;5102049;28;20097;-66
2022/05/04 12:44:32;;;;;;;12.30;5.80;;;20.90;99.90;;;;;;5096050;28;20686;-66
2022/05/04 12:47:01;;;;;;;7.28;6.28;;;20.60;99.90;;;;;;5099941;28;20050;-64
2022/05/04 12:49:29;;;;;;;8.07;5.93;;;20.40;99.90;;;;;;5092160;28;20120;-65
2022/05/04 12:51:57;;;;;;;9.25;5.57;;;20.20;99.90;;;;;;5097181;28;20631;-66
2022/05/04 12:54:25;;;;;;;9.85;6.75;;;19.60;99.90;;;;;;5103826;28;20115;-65
2022/05/04 12:56:52;;;;;;;9.60;7.10;;;19.60;99.90;;;;;;5095929;28;20130;-66
2022/05/04 12:59:20;;;;;;;10.43;7.72;;;19.50;99.90;;;;;;5104563;27;20035;-66
2022/05/04 13:01:48;;;;;;;12.20;8.20;;;19.40;99.90;;;;;;5094964;27;20415;-66
2022/05/04 13:04:17;;;;;;;12.93;9.13;;;19.20;99.90;;;;;;5102374;28;20040;-66
2022/05/04 13:06:45;;;;;;;10.38;8.00;;;19.00;99.90;;;;;;5102045;28;20516;-66
2022/05/04 13:09:13;;;;;;;10.52;8.15;;;18.70;99.90;;;;;;5105399;27;20047;-66
2022/05/04 13:11:41;;;;;;;10.82;8.45;;;18.50;99.90;;;;;;5103410;27;20527;-67
2022/05/04 13:14:08;;;;;;;9.77;7.57;;;18.40;99.90;;;;;;5104480;27;20193;-66
2022/05/04 13:16:36;;;;;;;16.65;8.55;;;18.20;99.90;;;;;;5111265;27;20040;-65
2022/05/04 13:19:07;;;;;;;13.45;7.80;;;18.00;99.90;;;;;;5109194;28;20494;-67